createdAt,value
2023-02-22T00:00:46.229Z,128.20
2023-02-22T00:03:18.986Z,108.90
2023-02-22T00:05:47.214Z,22.23
2023-02-22T00:08:16.021Z,18.67
2023-02-22T00:10:42.960Z,16.47
2023-02-22T00:13:13.231Z,18.47
2023-02-22T00:15:44.354Z,15.40
2023-02-22T00:18:14.694Z,19.63
2023-02-22T00:20:41.785Z,24.00
2023-02-22T00:23:19.024Z,18.40
2023-02-22T00:25:46.999Z,15.97
2023-02-22T00:28:15.229Z,21.23
2023-02-22T00:30:44.908Z,17.30
2023-02-22T00:33:13.380Z,18.27
2023-02-22T00:35:40.223Z,18.57
2023-02-22T00:38:07.589Z,17.70
2023-02-22T00:40:35.452Z,15.43
2023-02-22T00:43:04.611Z,20.90
2023-02-22T00:45:32.820Z,18.47
2023-02-22T00:48:00.487Z,16.40
2023-02-22T00:50:29.585Z,19.50
2023-02-22T00:52:57.815Z,18.03
2023-02-22T00:55:28.292Z,17.00
2023-02-22T00:57:55.667Z,18.13
2023-02-22T01:00:25.685Z,16.67
2023-02-22T01:02:52.435Z,19.80
2023-02-22T01:05:24.151Z,19.87
2023-02-22T01:07:51.448Z,19.17
2023-02-22T01:10:21.005Z,17.40
2023-02-22T01:12:48.449Z,21.73
2023-02-22T01:15:16.868Z,16.13
2023-02-22T01:17:44.056Z,21.23
2023-02-22T01:20:14.777Z,19.37
2023-02-22T01:22:49.873Z,19.33
2023-02-22T01:25:19.881Z,18.53
2023-02-22T01:27:46.975Z,18.40
2023-02-22T01:30:15.084Z,19.00
2023-02-22T01:32:42.713Z,19.13
2023-02-22T01:35:13.734Z,18.83
2023-02-22T01:37:42.084Z,21.30
2023-02-22T01:40:11.190Z,19.07
2023-02-22T01:42:37.918Z,16.57
2023-02-22T01:45:35.267Z,18.17
2023-02-22T01:48:08.675Z,19.13
2023-02-22T01:50:42.198Z,15.03
2023-02-22T01:53:13.909Z,16.20
2023-02-22T01:55:41.118Z,14.23
2023-02-22T01:58:09.006Z,17.73
2023-02-22T02:00:36.357Z,15.27
2023-02-22T02:03:14.975Z,17.07
2023-02-22T02:05:42.777Z,15.53
2023-02-22T02:08:36.154Z,16.03
2023-02-22T02:11:08.654Z,16.10
2023-02-22T02:13:36.853Z,16.30
2023-02-22T02:16:04.065Z,15.27
2023-02-22T02:18:32.638Z,15.97
2023-02-22T02:21:38.439Z,13.30
2023-02-22T02:24:16.679Z,16.83
2023-02-22T02:26:49.262Z,18.23
2023-02-22T02:29:55.377Z,18.50
2023-02-22T02:32:28.067Z,17.90
2023-02-22T02:35:05.266Z,17.47
2023-02-22T02:37:44.021Z,21.70
2023-02-22T02:40:19.752Z,17.60
2023-02-22T02:43:14.060Z,18.77
2023-02-22T02:46:10.069Z,17.30
2023-02-22T02:48:41.605Z,18.13
2023-02-22T02:51:10.472Z,18.07
2023-02-22T02:53:40.631Z,16.10
2023-02-22T02:56:07.633Z,17.37
2023-02-22T02:58:42.652Z,18.07
2023-02-22T03:01:11.514Z,18.93
2023-02-22T03:04:10.449Z,16.83
2023-02-22T03:07:04.626Z,15.47
2023-02-22T03:09:49.153Z,15.80
2023-02-22T03:12:38.571Z,15.03
2023-02-22T03:15:29.640Z,15.57
2023-02-22T03:18:08.106Z,18.60
2023-02-22T03:20:50.260Z,15.63
2023-02-22T03:23:27.046Z,15.50
2023-02-22T03:26:12.007Z,15.13
2023-02-22T03:28:42.072Z,16.77
2023-02-22T03:31:18.155Z,15.83
2023-02-22T03:33:59.644Z,17.77
2023-02-22T03:36:32.544Z,16.43
2023-02-22T03:39:04.230Z,16.63
2023-02-22T03:41:31.924Z,18.00
2023-02-22T03:44:06.240Z,21.50
2023-02-22T03:46:35.264Z,17.50
2023-02-22T03:49:14.515Z,14.90
2023-02-22T03:51:41.409Z,16.07
2023-02-22T03:54:09.389Z,16.77
2023-02-22T03:56:50.044Z,17.97
2023-02-22T03:59:17.242Z,20.20
2023-02-22T04:01:43.960Z,22.17
2023-02-22T04:04:10.716Z,17.87
2023-02-22T04:06:37.700Z,18.57
2023-02-22T04:09:04.600Z,18.80
2023-02-22T04:11:31.340Z,20.47
2023-02-22T04:13:58.417Z,22.23
2023-02-22T04:16:25.149Z,20.17
2023-02-22T04:18:51.924Z,22.20
2023-02-22T04:21:19.028Z,20.53
2023-02-22T04:23:45.846Z,21.30
2023-02-22T04:26:13.026Z,23.83
2023-02-22T04:28:39.801Z,30.37
2023-02-22T04:31:06.674Z,24.30
2023-02-22T04:33:33.610Z,21.83
2023-02-22T04:36:00.316Z,25.73
2023-02-22T04:38:27.169Z,25.60
2023-02-22T04:40:55.935Z,22.47
2023-02-22T04:43:22.787Z,23.37
2023-02-22T04:45:49.568Z,23.90
2023-02-22T04:48:16.626Z,27.30
2023-02-22T04:50:43.345Z,23.83
2023-02-22T04:53:11.075Z,23.23
2023-02-22T04:55:37.758Z,28.10
2023-02-22T04:58:04.543Z,24.50
2023-02-22T05:00:31.246Z,24.87
2023-02-22T05:02:58.036Z,22.00
2023-02-22T05:05:24.966Z,23.67
2023-02-22T05:07:51.728Z,25.57
2023-02-22T05:10:19.014Z,24.60
2023-02-22T05:12:45.920Z,23.83
2023-02-22T05:15:17.218Z,27.57
2023-02-22T05:17:43.938Z,23.97
2023-02-22T05:20:23.321Z,23.77
2023-02-22T05:22:51.824Z,22.10
2023-02-22T05:25:20.348Z,22.27
2023-02-22T05:27:52.721Z,24.37
2023-02-22T05:30:24.341Z,27.57
2023-02-22T05:32:52.102Z,36.67
2023-02-22T05:35:24.281Z,36.87
2023-02-22T05:37:51.293Z,33.73
2023-02-22T05:40:23.851Z,33.00
2023-02-22T05:42:51.181Z,32.43
2023-02-22T05:45:20.138Z,30.70
2023-02-22T05:47:47.491Z,32.60
2023-02-22T05:50:15.158Z,32.50
2023-02-22T05:52:41.877Z,41.90
2023-02-22T05:55:10.263Z,65.80
2023-02-22T05:57:39.180Z,76.13
2023-02-22T06:00:08.237Z,51.03
2023-02-22T06:02:34.978Z,41.53
2023-02-22T06:05:01.663Z,43.23
2023-02-22T06:07:28.374Z,53.23
2023-02-22T06:09:55.145Z,51.87
2023-02-22T06:12:21.868Z,68.53
2023-02-22T06:14:48.549Z,52.63
2023-02-22T06:17:16.116Z,46.17
2023-02-22T06:19:42.812Z,53.07
2023-02-22T06:22:19.859Z,81.47
2023-02-22T06:24:46.610Z,120.30
2023-02-22T06:27:13.384Z,93.77
2023-02-22T06:29:44.405Z,132.13
2023-02-22T06:32:11.278Z,69.73
2023-02-22T06:34:38.120Z,49.93
2023-02-22T06:37:04.826Z,53.73
2023-02-22T06:39:31.542Z,45.90
2023-02-22T06:41:59.904Z,31.97
2023-02-22T06:44:26.657Z,28.10
2023-02-22T06:46:53.430Z,23.77
2023-02-22T06:49:20.897Z,24.63
2023-02-22T06:51:48.105Z,22.87
2023-02-22T06:54:15.031Z,22.90
2023-02-22T06:56:41.830Z,23.87
2023-02-22T06:59:08.624Z,21.80
2023-02-22T07:01:35.994Z,24.93
2023-02-22T07:04:03.463Z,25.33
2023-02-22T07:06:30.226Z,17.47
2023-02-22T07:08:57.033Z,26.00
2023-02-22T07:11:23.826Z,36.10
2023-02-22T07:13:50.650Z,39.10
2023-02-22T07:16:17.439Z,45.33
2023-02-22T07:18:44.235Z,26.90
2023-02-22T07:21:10.956Z,29.47
2023-02-22T07:23:38.303Z,31.50
2023-02-22T07:26:06.426Z,27.33
2023-02-22T07:28:33.215Z,26.20
2023-02-22T07:31:01.371Z,28.67
2023-02-22T07:33:28.228Z,21.13
2023-02-22T07:35:54.991Z,23.37
2023-02-22T07:38:21.683Z,22.80
2023-02-22T07:40:48.576Z,22.27
2023-02-22T07:43:23.508Z,22.00
2023-02-22T07:45:53.914Z,25.47
2023-02-22T07:48:22.891Z,23.33
2023-02-22T07:50:49.812Z,22.73
2023-02-22T07:53:31.698Z,24.10
2023-02-22T07:56:02.666Z,22.10
2023-02-22T07:58:30.652Z,19.93
2023-02-22T08:00:58.011Z,23.80
2023-02-22T08:03:26.493Z,21.10
2023-02-22T08:05:56.093Z,18.97
2023-02-22T08:08:23.314Z,19.07
2023-02-22T08:10:51.234Z,29.40
2023-02-22T08:13:18.897Z,29.87
2023-02-22T08:15:47.180Z,25.93
2023-02-22T08:18:16.281Z,23.23
2023-02-22T08:20:44.358Z,21.30
2023-02-22T08:23:13.087Z,23.43
2023-02-22T08:25:39.851Z,19.33
2023-02-22T08:28:09.637Z,17.87
2023-02-22T08:30:40.083Z,17.93
2023-02-22T08:33:07.461Z,20.30
2023-02-22T08:35:34.560Z,22.80
2023-02-22T08:38:04.183Z,27.80
2023-02-22T08:40:34.578Z,24.50
2023-02-22T08:43:01.737Z,26.07
2023-02-22T08:45:28.919Z,23.10
2023-02-22T08:47:55.926Z,26.63
2023-02-22T08:50:33.687Z,24.87
2023-02-22T08:53:02.005Z,30.93
2023-02-22T08:55:34.095Z,31.97
2023-02-22T08:58:02.957Z,31.83
2023-02-22T09:00:33.137Z,20.30
2023-02-22T09:03:02.036Z,18.37
2023-02-22T09:05:31.335Z,15.60
2023-02-22T09:07:58.646Z,16.50
2023-02-22T09:10:28.684Z,17.80
2023-02-22T09:12:55.906Z,13.90
2023-02-22T09:15:24.999Z,19.97
2023-02-22T09:17:52.668Z,15.47
2023-02-22T09:20:21.328Z,17.30
2023-02-22T09:22:49.043Z,13.37
2023-02-22T09:25:17.704Z,13.33
2023-02-22T09:27:48.879Z,16.37
2023-02-22T09:30:36.425Z,15.43
2023-02-22T09:33:20.417Z,16.30
2023-02-22T09:35:49.835Z,13.77
2023-02-22T09:38:19.496Z,13.93
2023-02-22T09:40:49.889Z,15.60
2023-02-22T09:43:23.681Z,14.27
2023-02-22T09:46:21.390Z,14.97
2023-02-22T09:49:21.298Z,13.80
2023-02-22T09:51:50.616Z,12.77
2023-02-22T09:54:51.883Z,15.83
2023-02-22T09:57:26.794Z,13.83
2023-02-22T10:00:13.277Z,13.07
2023-02-22T10:02:48.944Z,13.03
2023-02-22T10:05:20.062Z,12.93
2023-02-22T10:08:12.738Z,13.57
2023-02-22T10:10:44.770Z,14.50
2023-02-22T10:13:34.789Z,14.77
2023-02-22T10:16:05.223Z,13.97
2023-02-22T10:19:03.119Z,17.50
2023-02-22T10:22:00.957Z,16.83
2023-02-22T10:24:38.434Z,15.37
2023-02-22T10:27:08.476Z,14.10
2023-02-22T10:29:52.340Z,16.87
2023-02-22T10:32:31.416Z,15.13
2023-02-22T10:35:00.205Z,17.63
2023-02-22T10:37:34.642Z,14.13
2023-02-22T10:40:18.751Z,14.40
2023-02-22T10:42:45.554Z,14.27
2023-02-22T10:45:27.258Z,14.63
2023-02-22T10:47:59.019Z,14.30
2023-02-22T10:50:31.853Z,13.67
2023-02-22T10:52:58.645Z,12.83
2023-02-22T10:55:25.543Z,13.43
2023-02-22T10:58:00.388Z,12.67
2023-02-22T11:00:37.303Z,13.53
2023-02-22T11:03:22.475Z,11.90
2023-02-22T11:05:49.955Z,12.07
2023-02-22T11:08:16.693Z,12.87
2023-02-22T11:10:43.804Z,15.33
2023-02-22T11:13:18.869Z,11.90
2023-02-22T11:15:45.729Z,11.50
2023-02-22T11:18:31.313Z,10.80
2023-02-22T11:21:14.007Z,11.10
2023-02-22T11:23:44.729Z,11.07
2023-02-22T11:26:15.236Z,10.17
2023-02-22T11:28:49.401Z,10.83
2023-02-22T11:31:22.930Z,10.53
2023-02-22T11:34:03.813Z,10.53
2023-02-22T11:36:40.547Z,9.77
2023-02-22T11:39:25.591Z,10.73
2023-02-22T11:41:52.577Z,12.80
2023-02-22T11:44:24.473Z,8.10
2023-02-22T11:46:55.730Z,7.57
2023-02-22T11:49:46.054Z,7.77
2023-02-22T11:52:34.740Z,7.13
2023-02-22T11:55:41.229Z,5.93
2023-02-22T11:58:29.777Z,6.00
2023-02-22T12:01:39.179Z,7.23
2023-02-22T12:04:27.660Z,5.57
2023-02-22T12:07:20.398Z,7.27
2023-02-22T12:10:02.239Z,6.07
2023-02-22T12:13:03.673Z,5.17
2023-02-22T12:15:42.935Z,4.67
2023-02-22T12:18:17.923Z,5.07
2023-02-22T12:20:55.629Z,4.77
2023-02-22T12:23:30.803Z,5.03
2023-02-22T12:25:58.681Z,4.27
2023-02-22T12:28:38.188Z,4.80
2023-02-22T12:31:29.354Z,4.93
2023-02-22T12:34:09.438Z,4.17
2023-02-22T12:36:43.726Z,4.63
2023-02-22T12:39:29.182Z,4.37
2023-02-22T12:41:57.206Z,5.30
2023-02-22T12:44:33.170Z,5.30
2023-02-22T12:47:02.367Z,5.23
2023-02-22T12:49:56.743Z,6.53
2023-02-22T12:52:35.728Z,5.37
2023-02-22T12:55:18.066Z,6.37
2023-02-22T12:57:52.619Z,5.87
2023-02-22T13:00:48.054Z,5.43
2023-02-22T13:03:38.686Z,5.53
2023-02-22T13:06:11.363Z,5.80
2023-02-22T13:08:47.142Z,6.37
2023-02-22T13:11:35.118Z,5.70
2023-02-22T13:14:13.481Z,6.03
2023-02-22T13:17:04.076Z,6.00
2023-02-22T13:19:49.341Z,4.90
2023-02-22T13:22:28.123Z,5.40
2023-02-22T13:25:16.249Z,7.53
2023-02-22T13:28:21.500Z,5.67
2023-02-22T13:31:11.716Z,5.63
2023-02-22T13:33:57.253Z,6.77
2023-02-22T13:36:38.572Z,5.50
2023-02-22T13:39:27.933Z,4.60
2023-02-22T13:42:28.237Z,6.30
2023-02-22T13:45:19.128Z,5.10
2023-02-22T13:48:11.741Z,7.03
2023-02-22T13:51:07.794Z,6.00
2023-02-22T13:53:47.821Z,6.33
2023-02-22T13:56:15.737Z,6.10
2023-02-22T13:59:00.254Z,6.40
2023-02-22T14:01:46.366Z,7.17
2023-02-22T14:04:27.830Z,5.73
2023-02-22T14:07:02.947Z,7.40
2023-02-22T14:09:49.907Z,5.70
2023-02-22T14:12:28.925Z,5.30
2023-02-22T14:15:27.760Z,5.97
2023-02-22T14:18:03.227Z,6.80
2023-02-22T14:20:40.398Z,6.43
2023-02-22T14:23:33.654Z,5.10
2023-02-22T14:26:37.140Z,5.70
2023-02-22T14:29:09.594Z,6.30
2023-02-22T14:31:45.099Z,7.07
2023-02-22T14:34:30.832Z,6.77
2023-02-22T14:37:07.700Z,5.87
2023-02-22T14:39:39.960Z,6.87
2023-02-22T14:42:27.886Z,8.67
2023-02-22T14:45:09.905Z,7.27
2023-02-22T14:47:40.993Z,6.67
2023-02-22T14:50:16.578Z,7.23
2023-02-22T14:52:46.538Z,5.47
2023-02-22T14:55:29.849Z,4.90
2023-02-22T14:58:10.603Z,4.93
2023-02-22T15:00:37.361Z,5.90
2023-02-22T15:03:04.910Z,5.03
2023-02-22T15:05:40.371Z,4.87
2023-02-22T15:08:09.506Z,4.43
2023-02-22T15:10:45.927Z,6.87
2023-02-22T15:13:23.887Z,5.30
2023-02-22T15:16:01.787Z,6.30
2023-02-22T15:18:41.356Z,4.57
2023-02-22T15:21:13.491Z,6.00
2023-02-22T15:24:02.046Z,5.80
2023-02-22T15:26:37.364Z,7.33
2023-02-22T15:29:11.134Z,6.67
2023-02-22T15:31:40.440Z,5.50
2023-02-22T15:34:27.160Z,6.57
2023-02-22T15:36:56.425Z,7.97
2023-02-22T15:39:29.675Z,7.23
2023-02-22T15:42:07.906Z,4.97
2023-02-22T15:44:40.441Z,5.40
2023-02-22T15:47:19.077Z,5.20
2023-02-22T15:49:46.250Z,5.53
2023-02-22T15:52:23.325Z,9.90
2023-02-22T15:54:51.824Z,5.10
2023-02-22T15:57:25.292Z,5.83
2023-02-22T15:59:55.890Z,5.83
2023-02-22T16:02:37.139Z,8.03
2023-02-22T16:05:09.046Z,5.27
2023-02-22T16:07:46.898Z,6.17
2023-02-22T16:10:28.757Z,4.87
2023-02-22T16:13:30.497Z,6.13
2023-02-22T16:16:03.750Z,6.40
2023-02-22T16:18:33.716Z,10.43
2023-02-22T16:21:05.674Z,5.90
2023-02-22T16:23:33.559Z,7.87
2023-02-22T16:26:26.652Z,6.37
2023-02-22T16:29:00.100Z,6.63
2023-02-22T16:31:38.605Z,5.70
2023-02-22T16:34:08.117Z,6.27
2023-02-22T16:36:46.953Z,5.90
2023-02-22T16:39:36.064Z,7.53
2023-02-22T16:42:05.039Z,9.70
2023-02-22T16:44:31.819Z,6.50
2023-02-22T16:47:00.604Z,6.67
2023-02-22T16:49:30.075Z,7.53
2023-02-22T16:52:01.610Z,7.50
2023-02-22T16:54:36.501Z,7.57
2023-02-22T16:57:04.640Z,6.30
2023-02-22T16:59:36.293Z,9.07
2023-02-22T17:02:07.471Z,12.43
2023-02-22T17:04:34.802Z,7.37
2023-02-22T17:07:05.024Z,8.57
2023-02-22T17:09:32.856Z,9.13
2023-02-22T17:12:00.247Z,8.60
2023-02-22T17:14:36.438Z,9.30
2023-02-22T17:17:03.472Z,9.30
2023-02-22T17:19:30.306Z,10.23
2023-02-22T17:21:57.128Z,9.63
2023-02-22T17:24:29.160Z,10.43
2023-02-22T17:26:57.543Z,12.17
2023-02-22T17:29:24.386Z,11.70
2023-02-22T17:31:52.877Z,13.67
2023-02-22T17:34:20.335Z,15.77
2023-02-22T17:36:47.122Z,12.67
2023-02-22T17:39:14.023Z,12.43
2023-02-22T17:41:41.032Z,11.07
2023-02-22T17:44:08.167Z,11.50
2023-02-22T17:46:36.484Z,12.10
2023-02-22T17:49:03.428Z,11.27
2023-02-22T17:51:30.452Z,11.43
2023-02-22T17:53:57.466Z,9.53
2023-02-22T17:56:24.439Z,10.33
2023-02-22T17:58:53.771Z,11.03
2023-02-22T18:01:27.997Z,11.10
2023-02-22T18:03:57.883Z,12.83
2023-02-22T18:06:28.455Z,246.93
2023-02-22T18:08:57.258Z,32.20
2023-02-22T18:11:26.455Z,179.43
2023-02-22T18:13:58.196Z,183.53
2023-02-22T18:16:26.131Z,266.00
2023-02-22T18:18:54.340Z,339.23
2023-02-22T18:21:21.723Z,143.47
2023-02-22T18:23:48.526Z,36.40
2023-02-22T18:26:17.483Z,16.60
2023-02-22T18:28:44.678Z,32.50
2023-02-22T18:31:17.251Z,18.63
2023-02-22T18:33:45.818Z,20.63
2023-02-22T18:36:14.238Z,13.43
2023-02-22T18:38:43.336Z,16.33
2023-02-22T18:41:16.352Z,14.57
2023-02-22T18:43:46.604Z,14.97
2023-02-22T18:46:18.335Z,14.47
2023-02-22T18:48:47.161Z,15.97
2023-02-22T18:51:17.530Z,17.67
2023-02-22T18:53:47.064Z,20.30
2023-02-22T18:56:21.778Z,19.13
2023-02-22T18:58:52.481Z,17.53
2023-02-22T19:01:19.408Z,19.50
2023-02-22T19:03:49.632Z,21.43
2023-02-22T19:06:18.297Z,16.97
2023-02-22T19:08:46.120Z,22.13
2023-02-22T19:11:19.286Z,18.47
2023-02-22T19:13:51.231Z,21.20
2023-02-22T19:16:20.505Z,18.57
2023-02-22T19:18:49.721Z,21.67
2023-02-22T19:21:16.823Z,21.37
2023-02-22T19:23:47.912Z,22.07
2023-02-22T19:26:20.233Z,21.60
2023-02-22T19:28:47.940Z,16.77
2023-02-22T19:31:18.317Z,18.17
2023-02-22T19:33:46.418Z,16.87
2023-02-22T19:36:14.604Z,21.33
2023-02-22T19:38:41.749Z,20.07
2023-02-22T19:41:12.317Z,18.97
2023-02-22T19:43:39.234Z,20.10
2023-02-22T19:46:07.328Z,20.93
2023-02-22T19:48:34.771Z,21.80
2023-02-22T19:51:07.212Z,19.03
2023-02-22T19:53:35.187Z,23.97
2023-02-22T19:56:09.654Z,18.90
2023-02-22T19:58:41.123Z,20.13
2023-02-22T20:01:22.818Z,18.90
2023-02-22T20:03:54.722Z,20.87
2023-02-22T20:06:26.357Z,18.60
2023-02-22T20:08:54.590Z,20.83
2023-02-22T20:11:22.838Z,21.43
2023-02-22T20:13:49.678Z,23.93
2023-02-22T20:16:16.674Z,22.33
2023-02-22T20:18:48.128Z,21.23
2023-02-22T20:21:27.655Z,20.37
2023-02-22T20:23:57.241Z,22.07
2023-02-22T20:26:25.653Z,23.77
2023-02-22T20:28:52.967Z,24.73
2023-02-22T20:31:21.286Z,27.40
2023-02-22T20:33:52.456Z,25.43
2023-02-22T20:36:22.180Z,23.13
2023-02-22T20:38:55.558Z,21.23
2023-02-22T20:41:30.983Z,21.30
2023-02-22T20:43:59.554Z,20.67
2023-02-22T20:46:28.238Z,23.30
2023-02-22T20:48:56.096Z,19.27
2023-02-22T20:51:23.017Z,22.37
2023-02-22T20:53:50.229Z,18.07
2023-02-22T20:56:19.510Z,18.13
2023-02-22T20:58:46.874Z,18.30
2023-02-22T21:01:19.575Z,20.37
2023-02-22T21:03:46.979Z,21.67
2023-02-22T21:06:17.657Z,17.43
2023-02-22T21:08:49.208Z,22.27
2023-02-22T21:11:18.281Z,21.27
2023-02-22T21:13:45.248Z,28.50
2023-02-22T21:16:29.990Z,21.37
2023-02-22T21:18:59.572Z,22.17
2023-02-22T21:21:27.586Z,20.13
2023-02-22T21:23:56.509Z,23.30
2023-02-22T21:26:27.460Z,23.17
2023-02-22T21:28:55.884Z,22.90
2023-02-22T21:31:24.743Z,25.87
2023-02-22T21:33:54.438Z,24.53
2023-02-22T21:36:25.384Z,24.37
2023-02-22T21:38:55.558Z,21.43
2023-02-22T21:41:27.360Z,21.73
2023-02-22T21:43:55.540Z,21.17
2023-02-22T21:46:22.975Z,21.73
2023-02-22T21:48:49.942Z,23.33
2023-02-22T21:51:23.303Z,21.47
2023-02-22T21:53:52.597Z,18.87
2023-02-22T21:56:24.262Z,22.07
2023-02-22T21:58:59.111Z,21.07
2023-02-22T22:01:28.482Z,20.43
2023-02-22T22:03:56.745Z,19.80
2023-02-22T22:06:23.631Z,21.43
2023-02-22T22:08:50.509Z,20.67
2023-02-22T22:11:18.031Z,17.57
2023-02-22T22:13:45.108Z,19.87
2023-02-22T22:16:18.304Z,20.83
2023-02-22T22:18:46.807Z,23.00
2023-02-22T22:21:20.561Z,18.63
2023-02-22T22:23:48.237Z,23.37
2023-02-22T22:26:17.764Z,20.97
2023-02-22T22:28:48.499Z,19.50
2023-02-22T22:31:17.456Z,19.47
2023-02-22T22:33:45.577Z,20.73
2023-02-22T22:36:14.444Z,19.87
2023-02-22T22:38:41.509Z,18.90
2023-02-22T22:41:13.198Z,19.53
2023-02-22T22:43:41.430Z,21.27
2023-02-22T22:46:08.826Z,17.33
2023-02-22T22:48:39.041Z,16.40
2023-02-22T22:51:11.815Z,19.17
2023-02-22T22:53:41.184Z,18.97
2023-02-22T22:56:17.460Z,21.77
2023-02-22T22:58:51.954Z,18.27
2023-02-22T23:01:26.848Z,18.03
2023-02-22T23:04:01.694Z,19.90
2023-02-22T23:06:32.889Z,19.30
2023-02-22T23:09:10.360Z,21.77
2023-02-22T23:11:45.434Z,20.93
2023-02-22T23:14:21.825Z,21.47
2023-02-22T23:16:50.603Z,18.03
2023-02-22T23:19:19.291Z,19.93
2023-02-22T23:21:50.210Z,16.63
2023-02-22T23:24:20.724Z,21.87
2023-02-22T23:26:50.952Z,18.80
2023-02-22T23:29:19.962Z,18.67
2023-02-22T23:31:48.604Z,22.47
2023-02-22T23:34:21.196Z,24.30
2023-02-22T23:36:48.647Z,18.97
2023-02-22T23:39:17.614Z,19.27
2023-02-22T23:41:44.373Z,21.17
2023-02-22T23:44:16.776Z,19.30
2023-02-22T23:46:48.852Z,19.27
2023-02-22T23:49:20.649Z,20.33
2023-02-22T23:51:48.554Z,20.63
2023-02-22T23:54:19.246Z,24.50
2023-02-22T23:56:53.618Z,20.27
2023-02-22T23:59:20.353Z,21.07
